• Join FlightAware (Why Join?)
  • Login
  • US Flag 
08:59PM EDT


 

Airport Tracker/Info


-or-


 

Live Flight TrackerFlight Track Log ✈ N173DS ✈ 15-Jun-2014 ✈ KBDL - KTPA

Flight Track Log - Related Links

Times and Time Zones

All times are in EDT time to prevent confusion due to time zone crossing. See the N173DS flight status page for this flight to view local times or setup timezone preferences in your user account.

Time Position Orientation Groundspeed Altitude Reporting Facility
EDT Latitude Longitude Course Direction KTS MPH feet Rate Location/Type
04:58PM 41.9456 -72.7022 265° West 162 186 1,300  Level Boston Center
04:58PM 41.9436 -72.7325 265° West 179 206 2,600 3,240 Climbing Boston Center
04:59PM 41.9392 -72.8083 266° West 203 234 6,300 3,960 Climbing Boston Center
05:00PM 41.9328 -72.8986 265° West 221 254 10,700 4,320 Climbing Boston Center
05:01PM 41.9283 -72.9814 266° West 221 254 15,100 3,720 Climbing Boston Center
05:02PM 41.9239 -73.0769 266° West 257 296 18,500 2,040 Climbing Boston Center
05:03PM 41.9158 -73.1806 264° West 317 365 19,400 720 Climbing Boston Center
05:04PM 41.8939 -73.3267 259° West 392 451 20,000 1,200 Climbing Boston Center
05:05PM 41.8328 -73.4603 238° Southwest 421 484 21,900 960 Climbing Boston Center
05:06PM 41.7569 -73.5778 229° Southwest 428 493 22,100 1,680 Climbing Boston Center
05:07PM 41.6114 -73.5969 186° South 439 505 25,400 2,640 Climbing Boston Center
05:08PM 41.4983 -73.6064 184° South 457 526 27,600 1,860 Climbing Boston Center
05:09PM 41.3792 -73.7239 217° Southwest 448 516 29,300 1,140 Climbing Boston Center
05:10PM 41.2800 -73.8397 221° Southwest 472 543 30,000 360 Climbing Boston Center
05:11PM 41.2175 -73.9156 222° Southwest 476 548 30,000 240 Level New York Center
05:12PM 41.1106 -74.0261 218° Southwest 487 560 30,400 900 Climbing New York Center
05:13PM 40.9972 -74.1306 215° Southwest 500 575 31,900 2,100 Climbing New York Center
05:14PM 40.9125 -74.2500 227° Southwest 476 548 34,600 2,220 Climbing New York Center
05:15PM 40.8319 -74.3667 228° Southwest 457 526 36,400 1,500 Climbing New York Center
05:16PM 40.7508 -74.4911 229° Southwest 451 519 37,600 1,200 Climbing New York Center
05:17PM 40.6678 -74.6122 228° Southwest 451 519 38,800 1,140 Climbing New York Center
05:18PM 40.5806 -74.7331 226° Southwest 451 519 39,900 600 Climbing New York Center
05:19PM 40.4950 -74.8592 228° Southwest 451 519 40,000  Climbing New York Center
05:20PM 40.4050 -74.9900 228° Southwest 464 534 40,000  Level New York Center
05:21PM 40.3125 -75.1206 227° Southwest 485 558 40,000  Level New York Center
05:22PM 40.2222 -75.2508 228° Southwest 485 558 40,000  Level New York Center
05:23PM 40.1319 -75.3808 228° Southwest 485 558 40,000  Level New York Center
05:24PM 40.0306 -75.5178 226° Southwest 485 558 40,000  Level New York Center
05:25PM 39.9442 -75.6419 228° Southwest 485 558 40,000  Level New York Center
05:26PM 39.8617 -75.7686 230° Southwest 474 545 40,000  Level New York Center
05:27PM 39.7811 -75.8953 230° Southwest 469 540 40,000  Level New York Center
05:28PM 39.7006 -76.0244 231° Southwest 462 532 40,000  Level New York Center
05:30PM 39.5533 -76.2536 230° Southwest 460 529 40,000  Level Washington Center
05:31PM 39.4756 -76.3767 231° Southwest 460 529 40,000  Level Washington Center
05:32PM 39.3956 -76.5047 231° Southwest 460 529 40,000  Level Washington Center
05:33PM 39.3175 -76.6164 228° Southwest 460 529 40,000  Level Washington Center
05:34PM 39.2372 -76.7411 230° Southwest 455 524 40,000  Level Washington Center
05:35PM 39.1547 -76.8683 230° Southwest 460 529 40,000  Level Washington Center
05:36PM 39.0719 -76.9953 230° Southwest 460 529 40,000  Level Washington Center
05:37PM 38.9808 -77.1111 225° Southwest 465 535 40,000  Level Washington Center
05:38PM 38.8794 -77.2183 219° Southwest 465 535 40,000  Level Washington Center
05:39PM 38.7800 -77.3200 219° Southwest 470 541 40,000  Level Washington Center
05:40PM 38.6678 -77.4342 218° Southwest 470 541 40,000  Level Washington Center
05:41PM 38.5683 -77.5353 218° Southwest 470 541 40,000  Level Washington Center
05:42PM 38.4686 -77.6389 219° Southwest 470 541 40,000  Level Washington Center
05:43PM 38.3708 -77.7367 218° Southwest 464 534 40,000  Level Washington Center
05:44PM 38.2689 -77.8397 218° Southwest 464 534 40,000  Level Washington Center
05:45PM 38.1711 -77.9372 218° Southwest 464 534 40,000  Level Washington Center
05:46PM 38.0692 -78.0394 218° Southwest 464 534 40,000  Level Washington Center
05:47PM 37.9817 -78.1261 218° Southwest 464 534 40,000  Level Washington Center
05:48PM 37.8817 -78.2253 218° Southwest 464 534 40,000  Level Washington Center
05:49PM 37.7792 -78.3242 217° Southwest 464 534 40,000  Level Washington Center
05:50PM 37.6767 -78.4256 218° Southwest 464 534 40,000  Level Washington Center
05:51PM 37.5636 -78.5339 217° Southwest 469 540 40,000  Level Washington Center
05:52PM 37.4739 -78.6222 218° Southwest 463 533 40,000  Level Washington Center
05:53PM 37.3625 -78.7300 218° Southwest 457 526 40,000  Level Washington Center
05:54PM 37.2706 -78.8178 217° Southwest 463 533 40,000  Level Washington Center
05:55PM 37.1569 -78.9275 218° Southwest 470 541 40,000  Level Washington Center
05:56PM 37.0542 -79.0244 217° Southwest 470 541 40,000  Level Washington Center
05:57PM 36.9531 -79.1242 218° Southwest 470 541 40,000  Level Washington Center
05:58PM 36.8500 -79.2206 217° Southwest 470 541 40,000  Level Washington Center
06:00PM 36.6350 -79.4289 218° Southwest 504 580 40,000  Level Atlanta Center
06:01PM 36.5303 -79.5278 217° Southwest 487 560 40,000  Level Atlanta Center
06:02PM 36.4272 -79.6214 216° Southwest 477 549 40,000  Level Atlanta Center
06:03PM 36.3203 -79.7225 217° Southwest 477 549 40,000  Level Atlanta Center
06:04PM 36.2150 -79.8183 216° Southwest 482 555 40,000  Level Atlanta Center
06:05PM 36.1122 -79.9161 218° Southwest 482 555 40,000  Level Atlanta Center
06:06PM 36.0167 -79.9928 213° Southwest 477 549 40,000  Level Atlanta Center
06:07PM 35.8933 -80.0528 202° Southwest 471 542 40,000  Level Atlanta Center
06:08PM 35.7744 -80.1125 202° Southwest 470 541 40,000  Level Atlanta Center
06:09PM 35.6533 -80.1744 203° Southwest 470 541 40,000  Level Atlanta Center
06:10PM 35.5300 -80.2339 201° Southwest 470 541 40,100  Climbing Atlanta Center
06:11PM 35.4150 -80.2953 204° Southwest 465 535 40,000 -60 Descending Atlanta Center
06:12PM 35.2936 -80.3542 202° Southwest 465 535 40,000  Level Atlanta Center
06:14PM 35.0731 -80.4603 201° Southwest 452 520 40,000  Level Jacksonville Center
06:15PM 34.9553 -80.5194 202° Southwest 452 520 40,000  Level Jacksonville Center
06:16PM 34.8394 -80.5783 203° Southwest 452 520 40,000  Level Jacksonville Center
06:17PM 34.7361 -80.6342 204° Southwest 445 512 40,000  Level Jacksonville Center
06:18PM 34.5997 -80.6956 200° South 467 537 40,000  Level Jacksonville Center
06:19PM 34.4947 -80.7839 215° Southwest 462 532 40,000  Level Jacksonville Center
06:20PM 34.3942 -80.8769 217° Southwest 467 537 40,000  Level Jacksonville Center
06:22PM 34.1436 -81.1172 218° Southwest 481 554 40,000  Level Atlanta Center
06:23PM 34.0414 -81.2161 219° Southwest 481 554 40,000  Level Atlanta Center
06:24PM 33.9394 -81.3144 219° Southwest 481 554 40,000  Level Atlanta Center
06:25PM 33.8350 -81.4128 218° Southwest 481 554 40,000  Level Atlanta Center
06:26PM 33.7328 -81.5086 218° Southwest 481 554 40,000  Level Atlanta Center
06:27PM 33.6303 -81.6039 218° Southwest 481 554 40,000  Level Atlanta Center
06:28PM 33.5300 -81.7014 219° Southwest 481 554 40,000  Level Atlanta Center
06:29PM 33.4253 -81.7961 217° Southwest 481 554 40,000  Level Atlanta Center
06:30PM 33.3225 -81.8958 219° Southwest 481 554 40,000  Level Atlanta Center
06:31PM 33.2178 -81.9928 218° Southwest 481 554 40,000  Level Atlanta Center
06:32PM 33.1131 -82.0894 218° Southwest 481 554 40,000  Level Atlanta Center
06:33PM 33.0058 -82.1861 217° Southwest 481 554 40,100 480 Climbing Atlanta Center
06:34PM 32.9050 -82.2797 218° Southwest 481 554 41,000 420 Climbing Atlanta Center
06:35PM 32.8061 -82.3706 218° Southwest 476 548 41,000  Level Atlanta Center
06:37PM 32.6400 -82.5250 218° Southwest 479 551 41,000  Level Jacksonville Center
06:38PM 32.5253 -82.5944 207° Southwest 463 533 41,000  Level Jacksonville Center
06:39PM 32.3811 -82.5875 178° South 446 513 41,000  Level Jacksonville Center
06:40PM 32.2475 -82.5733 175° South 463 533 41,000  Level Jacksonville Center
06:41PM 32.1161 -82.5614 176° South 463 533 41,000  Level Jacksonville Center
06:42PM 31.9844 -82.5497 176° South 473 544 41,000  Level Jacksonville Center
06:43PM 31.8467 -82.5403 177° South 484 557 41,000  Level Jacksonville Center
06:44PM 31.7400 -82.5286 175° South 484 557 41,000  Level Jacksonville Center
06:45PM 31.5939 -82.5169 176° South 484 557 41,000  Level Jacksonville Center
06:46PM 31.4581 -82.5078 177° South 484 557 41,000  Level Jacksonville Center
06:47PM 31.3142 -82.5011 178° South 478 550 41,000  Level Jacksonville Center
06:48PM 31.1825 -82.4919 177° South 478 550 41,000 -60 Level Jacksonville Center
06:49PM 31.0508 -82.4803 176° South 478 550 40,900 -540 Descending Jacksonville Center
06:50PM 30.9194 -82.4664 175° South 478 550 40,000 -1,140 Descending Jacksonville Center
06:51PM 30.7897 -82.4572 177° South 478 550 38,700 -1,020 Descending Jacksonville Center
06:52PM 30.6583 -82.4483 177° South 478 550 38,000 -360 Descending Jacksonville Center
06:53PM 30.5267 -82.4344 175° South 478 550 38,000  Level Jacksonville Center
06:54PM 30.3931 -82.4253 177° South 483 556 38,000 -240 Level Jacksonville Center
06:55PM 30.2594 -82.4164 177° South 483 556 37,600 -1,320 Descending Jacksonville Center
06:56PM 30.1278 -82.4050 176° South 477 549 35,400 -2,100 Descending Jacksonville Center
06:57PM 30.0086 -82.3889 173° South 477 549 33,500 -2,100 Descending Jacksonville Center
06:58PM 29.8625 -82.3778 176° South 477 549 31,300 -2,100 Descending Jacksonville Center
06:59PM 29.7289 -82.3689 177° South 477 549 29,300 -2,100 Descending Jacksonville Center
07:00PM 29.5953 -82.3600 177° South 482 555 27,200 -1,920 Descending Jacksonville Center
07:01PM 29.4636 -82.3439 174° South 477 549 25,500 -1,920 Descending Jacksonville Center
07:02PM 29.3447 -82.3303 174° South 463 533 23,400 -2,100 Descending Jacksonville Center
07:03PM 29.2361 -82.3167 174° South 425 489 21,400 -2,040 Descending Jacksonville Center
07:04PM 29.1294 -82.3056 175° South 403 464 19,400 -1,800 Descending Jacksonville Center
07:05PM 29.0292 -82.2917 173° South 380 437 17,800 -1,740 Descending Jacksonville Center
07:06PM 28.9269 -82.2806 175° South 375 432 16,000 -1,500 Descending Jacksonville Center
07:08PM 28.7167 -82.2500 173° South 324 373 13,000 -1,320 Descending Tampa TRACON
07:09PM 28.6167 -82.2500 180° South 313 360 11,700 -1,380 Descending Tampa TRACON
07:10PM 28.5333 -82.2500 180° South 315 362 10,200 -900 Descending Tampa TRACON
07:11PM 28.4500 -82.2833 199° South 294 338 10,000 -120 Descending Tampa TRACON
07:12PM 28.3667 -82.3000 190° South 293 337 10,000 -600 Level Tampa TRACON
07:13PM 28.2833 -82.3333 199° South 300 345 8,900 -1,320 Descending Tampa TRACON
07:14PM 28.2000 -82.3500 190° South 303 349 7,400 -1,500 Descending Tampa TRACON
07:15PM 28.1333 -82.3833 204° Southwest 282 325 5,900 -1,320 Descending Tampa TRACON
07:16PM 28.0667 -82.4000 192° South 276 318 5,000 -480 Descending Tampa TRACON
07:17PM 27.9833 -82.4167 190° South 278 320 5,000 -420 Level Tampa TRACON
07:18PM 27.9167 -82.4333 192° South 261 300 4,200 -1,080 Descending Tampa TRACON
07:19PM 27.8500 -82.4667 204° Southwest 254 292 2,900 -600 Descending Tampa TRACON
07:20PM 27.7833 -82.4833 192° South 225 259 3,000  Climbing Tampa TRACON
07:21PM 27.7667 -82.5500 254° West 222 255 3,000 -120 Level Tampa TRACON
07:22PM 27.8167 -82.5667 344° North 215 247 2,800 -720 Descending Tampa TRACON
07:24PM 27.9008 -82.5439 13° North 199 229 1,200 -1,020 Descending Miami Center
07:25PM 27.9450 -82.5428 North 173 199 300 -540 Descending Miami Center
07:26PM 27.9897 -82.5417 North 169 194 200 -120 Descending Miami Center